Dobbin, Texas
Current Conditions -  °F | °C
As of 3:53 AM on Saturday 22 Nov 2014 (Local Time) from KCXO Reporting Station
Overcast Overcast  
Wind Chill: 58°   Ceiling: 2100
Heat Index: 58°   Visibility: 10mi
Dew Point: 56°   Wind: 6mph
Humidity: 93%   Direction: 90°E
Pressure: 30.11"   Gusts: NA
Location:  30.37°N, 95.78°W
Report Text: KCXO 220953Z AUTO 09005KT 10SM SCT011 BKN021 OVC027 14/13 A3011 RMK AO2 SLP195 T01440133
Loading
Personal Weather Stations






























Interactive Weather Map New forecast layout! Learn more

10-Day Weather Forecast

Advertisements
Track Severe Weather on mobile